Time;durP1;ratioP1;P1;durP2;ratioP2;P2;SDS_P1;SDS_P2;PMS_P1;PMS_P2;Temp;Humidity;BMP_temperature;BMP_pressure;BME280_temperature;BME280_humidity;BME280_pressure;Samples;Min_cycle;Max_cycle;Signal;HPM_P1;HPM_P2
2022/09/10 00:01:50;;;;;;;19.48;14.75;;;;;;;18.34;100.00;94376.63;1686587;84;21516;-52
2022/09/10 00:04:16;;;;;;;21.10;13.38;;;;;;;18.33;100.00;94371.70;1684468;84;21015;-53
2022/09/10 00:06:44;;;;;;;19.07;13.72;;;;;;;18.30;100.00;94371.95;1665130;84;21103;-52
2022/09/10 00:09:11;;;;;;;17.75;14.00;;;;;;;18.25;100.00;94366.47;1688333;83;21353;-53
2022/09/10 00:11:39;;;;;;;22.32;15.98;;;;;;;18.23;100.00;94364.82;1687996;84;21426;-53
2022/09/10 00:14:09;;;;;;;23.60;16.42;;;;;;;18.19;100.00;94368.49;1691859;84;21030;-53
2022/09/10 00:16:35;;;;;;;22.65;14.95;;;;;;;18.19;100.00;94363.55;1695648;84;21049;-52
2022/09/10 00:19:02;;;;;;;24.47;14.98;;;;;;;18.17;100.00;94367.47;1697317;84;21077;-53
2022/09/10 00:21:29;;;;;;;20.50;15.05;;;;;;;18.11;100.00;94357.59;1698133;84;21227;-52
2022/09/10 00:23:57;;;;;;;19.50;15.53;;;;;;;18.08;100.00;94362.16;1690053;84;20967;-53
2022/09/10 00:26:27;;;;;;;23.27;16.50;;;;;;;18.12;100.00;94363.28;1683608;84;21025;-52
2022/09/10 00:28:55;;;;;;;23.65;17.07;;;;;;;18.17;100.00;94359.11;1695246;84;21050;-53
2022/09/10 00:31:22;;;;;;;21.23;15.35;;;;;;;18.20;100.00;94360.27;1691676;84;21045;-53
2022/09/10 00:33:50;;;;;;;21.17;14.30;;;;;;;18.19;100.00;94357.36;1654146;85;21204;-53
2022/09/10 00:36:26;;;;;;;21.77;15.13;;;;;;;18.13;100.00;94371.89;1655050;84;21419;-53
2022/09/10 00:38:54;;;;;;;16.97;12.68;;;;;;;18.09;100.00;94365.69;1641352;85;21084;-53
2022/09/10 00:41:22;;;;;;;16.97;12.75;;;;;;;18.07;100.00;94367.60;1658426;84;21066;-53
2022/09/10 00:43:58;;;;;;;19.15;11.80;;;;;;;18.03;100.00;94364.28;1669693;83;20982;-53
2022/09/10 00:46:48;;;;;;;18.37;12.65;;;;;;;18.02;100.00;94373.90;1686094;85;21319;-53
2022/09/10 00:49:20;;;;;;;14.78;10.60;;;;;;;18.01;100.00;94366.07;1680276;85;21014;-53
2022/09/10 00:51:48;;;;;;;21.75;10.85;;;;;;;18.04;100.00;94365.05;1701487;84;20993;-53
2022/09/10 00:54:16;;;;;;;16.62;12.35;;;;;;;18.09;100.00;94364.30;1683029;84;20951;-53
2022/09/10 00:56:44;;;;;;;14.38;11.60;;;;;;;18.16;100.00;94363.81;1694716;84;21029;-53
2022/09/10 00:59:10;;;;;;;16.57;10.90;;;;;;;18.18;100.00;94364.81;1657281;85;21326;-53
2022/09/10 01:01:38;;;;;;;15.95;11.08;;;;;;;18.20;100.00;94358.09;1655896;86;21587;-52
2022/09/10 01:04:05;;;;;;;16.55;10.32;;;;;;;18.21;100.00;94354.05;1629041;86;21049;-53
2022/09/10 01:06:33;;;;;;;19.35;12.18;;;;;;;18.24;100.00;94359.38;1634669;87;21098;-54
2022/09/10 01:09:00;;;;;;;20.05;13.20;;;;;;;18.26;100.00;94351.92;1677268;85;21124;-52
2022/09/10 01:12:02;;;;;;;19.62;13.13;;;;;;;18.26;100.00;94354.05;1671415;84;21143;-53
2022/09/10 01:14:45;;;;;;;23.30;13.13;;;;;;;18.27;100.00;94352.81;1658226;86;21097;-53
2022/09/10 01:17:29;;;;;;;15.18;11.68;;;;;;;18.32;100.00;94352.70;1678209;84;21109;-53
2022/09/10 01:20:42;;;;;;;20.95;10.93;;;;;;;18.31;100.00;94351.92;1683736;85;21438;-53
2022/09/10 01:23:33;;;;;;;18.90;10.40;;;;;;;18.27;100.00;94350.68;1681344;85;21092;-54
2022/09/10 01:26:18;;;;;;;13.25;9.90;;;;;;;18.20;100.00;94349.12;1681404;85;22086;-53
2022/09/10 01:29:14;;;;;;;11.25;8.55;;;;;;;18.15;100.00;94343.55;1617988;85;20990;-53
2022/09/10 01:32:00;;;;;;;13.03;9.43;;;;;;;18.10;100.00;94338.74;1686695;82;21018;-52
2022/09/10 01:34:37;;;;;;;15.53;11.25;;;;;;;18.05;100.00;94330.38;1671593;85;20963;-53
2022/09/10 01:37:13;;;;;;;16.62;9.63;;;;;;;18.03;100.00;94339.88;1625193;86;20995;-52
2022/09/10 01:39:40;;;;;;;11.65;9.23;;;;;;;17.97;100.00;94329.38;1662415;85;21585;-54
2022/09/10 01:42:07;;;;;;;17.95;9.20;;;;;;;17.91;100.00;94323.02;1662316;85;20947;-52
2022/09/10 01:44:50;;;;;;;10.08;8.03;;;;;;;17.87;100.00;94323.91;1655928;84;21492;-54
2022/09/10 01:47:48;;;;;;;17.10;10.25;;;;;;;17.87;100.00;94323.29;1656987;85;21049;-53
2022/09/10 01:50:37;;;;;;;17.35;8.83;;;;;;;17.84;100.00;94322.14;1642200;86;21091;-53
2022/09/10 01:53:39;;;;;;;15.78;8.78;;;;;;;17.81;100.00;94323.16;1662462;85;21156;-53
2022/09/10 01:56:34;;;;;;;11.48;8.60;;;;;;;17.73;100.00;94313.77;1658497;85;20977;-53
2022/09/10 01:59:38;;;;;;;11.78;8.20;;;;;;;17.67;100.00;94312.35;1622419;87;21555;-53
2022/09/10 02:02:25;;;;;;;13.05;9.03;;;;;;;17.63;100.00;94312.49;1658005;86;20975;-54
2022/09/10 02:04:52;;;;;;;11.43;8.60;;;;;;;17.59;100.00;94310.56;1660268;86;21164;-53
2022/09/10 02:07:21;;;;;;;15.23;9.10;;;;;;;17.55;100.00;94305.89;1662330;85;21142;-52
2022/09/10 02:09:50;;;;;;;12.95;8.45;;;;;;;17.50;100.00;94298.30;1635435;84;21614;-54
2022/09/10 02:12:20;;;;;;;12.47;8.18;;;;;;;17.47;100.00;94292.35;1656884;86;20943;-53
2022/09/10 02:14:54;;;;;;;23.18;10.15;;;;;;;17.44;100.00;94292.72;1652743;86;21011;-53
2022/09/10 02:17:39;;;;;;;14.05;9.68;;;;;;;17.49;100.00;94296.78;1662509;85;21422;-53
2022/09/10 02:20:09;;;;;;;13.98;9.43;;;;;;;17.53;100.00;94305.63;1639758;86;21843;-53
2022/09/10 02:22:36;;;;;;;15.88;9.70;;;;;;;17.56;100.00;94308.80;1654258;86;21004;-53
2022/09/10 02:25:08;;;;;;;13.95;7.95;;;;;;;17.59;100.00;94310.56;1631968;86;20947;-53
2022/09/10 02:27:37;;;;;;;13.10;8.83;;;;;;;17.62;100.00;94312.37;1668450;86;26579;-54
2022/09/10 02:30:06;;;;;;;14.35;9.55;;;;;;;17.63;100.00;94314.63;1661836;86;21016;-52
2022/09/10 02:32:33;;;;;;;11.12;9.35;;;;;;;17.63;100.00;94313.88;1649634;85;21472;-53
2022/09/10 02:35:00;;;;;;;14.45;9.43;;;;;;;17.63;100.00;94308.32;1662078;86;21023;-53
2022/09/10 02:37:28;;;;;;;13.10;8.60;;;;;;;17.62;100.00;94312.37;1693503;84;20982;-54
2022/09/10 02:39:55;;;;;;;11.85;9.10;;;;;;;17.62;100.00;94312.37;1683624;84;21007;-53
2022/09/10 02:42:22;;;;;;;14.15;9.08;;;;;;;17.63;100.00;94305.54;1677082;84;21097;-53
2022/09/10 02:44:49;;;;;;;17.92;10.88;;;;;;;17.65;100.00;94305.80;1680411;83;21253;-53
2022/09/10 02:47:17;;;;;;;13.50;9.60;;;;;;;17.67;100.00;94301.88;1658516;83;20965;-54
2022/09/10 02:49:44;;;;;;;14.90;10.13;;;;;;;17.69;100.00;94295.17;1671567;84;21034;-53
2022/09/10 02:52:11;;;;;;;19.92;10.10;;;;;;;17.74;100.00;94285.45;1675831;84;21022;-53
2022/09/10 02:54:39;;;;;;;14.78;9.30;;;;;;;17.82;100.00;94283.67;1673674;84;20958;-53
2022/09/10 02:57:06;;;;;;;14.25;9.53;;;;;;;17.87;100.00;94289.12;1679668;84;21140;-52
2022/09/10 02:59:34;;;;;;;14.03;10.88;;;;;;;17.85;100.00;94276.34;1685959;84;21038;-52
2022/09/10 03:02:01;;;;;;;16.80;10.45;;;;;;;17.79;100.00;94279.77;1681066;83;21577;-54
2022/09/10 03:04:28;;;;;;;13.60;8.88;;;;;;;17.71;100.00;94279.50;1688660;83;21002;-52
2022/09/10 03:06:55;;;;;;;11.12;9.38;;;;;;;17.67;100.00;94274.05;1692317;84;21017;-53
2022/09/10 03:09:22;;;;;;;10.35;8.23;;;;;;;17.61;100.00;94260.77;1703550;84;21149;-53
2022/09/10 03:11:50;;;;;;;10.72;9.28;;;;;;;17.56;100.00;94260.11;1701611;84;20970;-53
2022/09/10 03:14:19;;;;;;;13.83;10.45;;;;;;;17.55;100.00;94265.55;1693775;84;21002;-52
2022/09/10 03:16:46;;;;;;;12.50;9.58;;;;;;;17.52;100.00;94267.95;1693011;84;20998;-52
2022/09/10 03:19:14;;;;;;;18.10;11.53;;;;;;;17.51;100.00;94270.61;1692490;84;21034;-53
2022/09/10 03:21:41;;;;;;;15.85;10.20;;;;;;;17.50;100.00;94264.27;1690349;84;21291;-53
2022/09/10 03:24:10;;;;;;;12.18;9.08;;;;;;;17.49;100.00;94264.79;1691502;83;21065;-53
2022/09/10 03:26:36;;;;;;;11.20;9.58;;;;;;;17.48;100.00;94262.63;1656523;85;20966;-53
2022/09/10 03:29:04;;;;;;;18.67;10.35;;;;;;;17.53;100.00;94259.12;1658581;86;21038;-52
2022/09/10 03:31:34;;;;;;;12.78;10.03;;;;;;;17.58;100.00;94260.36;1662583;86;21012;-52
2022/09/10 03:34:01;;;;;;;16.82;9.58;;;;;;;17.62;100.00;94266.47;1659620;86;21322;-52
2022/09/10 03:36:34;;;;;;;13.08;9.08;;;;;;;17.63;100.00;94265.94;1647991;86;21516;-54
2022/09/10 03:38:58;;;;;;;11.08;8.48;;;;;;;17.62;100.00;94259.51;1689390;84;21022;-53
2022/09/10 03:41:27;;;;;;;11.57;9.50;;;;;;;17.60;100.00;94246.70;1693205;84;20989;-54
2022/09/10 03:43:56;;;;;;;14.58;9.38;;;;;;;17.64;100.00;94249.38;1693449;84;21503;-53
2022/09/10 03:46:24;;;;;;;14.13;9.40;;;;;;;17.63;100.00;94245.08;1693818;84;21223;-53
2022/09/10 03:48:52;;;;;;;15.80;9.70;;;;;;;17.59;100.00;94238.23;1689915;84;21065;-53
2022/09/10 03:51:22;;;;;;;13.03;7.85;;;;;;;17.57;100.00;94233.81;1691070;84;20989;-53
2022/09/10 03:53:49;;;;;;;12.90;8.53;;;;;;;17.57;100.00;94231.80;1692995;84;21457;-53
2022/09/10 03:56:19;;;;;;;16.02;10.63;;;;;;;17.61;100.00;94228.78;1700453;81;21026;-53
2022/09/10 03:58:47;;;;;;;15.53;8.98;;;;;;;17.62;100.00;94233.08;1698571;82;21330;-53
2022/09/10 04:01:16;;;;;;;18.20;10.45;;;;;;;17.64;100.00;94233.33;1686992;84;20966;-53
2022/09/10 04:03:43;;;;;;;11.75;9.93;;;;;;;17.69;100.00;94238.13;1692927;84;20978;-54
2022/09/10 04:06:11;;;;;;;12.13;9.43;;;;;;;17.70;100.00;94231.30;1686486;84;21577;-53
2022/09/10 04:08:39;;;;;;;11.55;9.30;;;;;;;17.70;100.00;94232.70;1683062;84;21010;-53
2022/09/10 04:11:08;;;;;;;10.45;9.35;;;;;;;17.71;100.00;94228.64;1681054;83;22174;-53
2022/09/10 04:13:36;;;;;;;11.63;10.50;;;;;;;17.67;100.00;94229.53;1693219;84;20958;-54
2022/09/10 04:16:03;;;;;;;16.52;10.93;;;;;;;17.64;100.00;94231.94;1693026;84;21121;-53
2022/09/10 04:18:33;;;;;;;22.02;10.30;;;;;;;17.60;100.00;94228.01;1686400;84;21074;-53
2022/09/10 04:21:00;;;;;;;13.35;8.65;;;;;;;17.60;100.00;94231.41;1681581;84;21576;-53
2022/09/10 04:23:28;;;;;;;13.78;9.65;;;;;;;17.63;100.00;94227.64;1685341;84;21311;-53
2022/09/10 04:25:55;;;;;;;15.65;10.03;;;;;;;17.68;100.00;94219.92;1690173;84;21449;-53
2022/09/10 04:28:23;;;;;;;25.40;11.68;;;;;;;17.75;100.00;94218.02;1699283;84;21504;-53
2022/09/10 04:30:51;;;;;;;14.93;10.23;;;;;;;17.80;100.00;94220.06;1689209;84;21443;-53
2022/09/10 04:33:18;;;;;;;12.23;9.83;;;;;;;17.79;100.00;94208.80;1685399;84;21005;-53
2022/09/10 04:35:45;;;;;;;11.68;9.38;;;;;;;17.78;100.00;94201.70;1703116;84;21942;-53
2022/09/10 04:38:12;;;;;;;10.68;9.20;;;;;;;17.78;100.00;94197.52;1660045;85;21006;-52
2022/09/10 04:40:40;;;;;;;13.25;9.03;;;;;;;17.83;100.00;94194.00;1672844;85;21113;-53
2022/09/10 04:43:07;;;;;;;15.13;10.75;;;;;;;17.82;100.00;94199.44;1692210;84;20970;-53
2022/09/10 04:45:36;;;;;;;13.55;10.00;;;;;;;17.79;100.00;94203.24;1693789;84;20978;-53
2022/09/10 04:48:04;;;;;;;14.83;9.78;;;;;;;17.73;100.00;94194.89;1691453;84;21226;-53
2022/09/10 04:50:32;;;;;;;14.40;10.70;;;;;;;17.71;100.00;94199.44;1688917;82;21019;-53
2022/09/10 04:53:13;;;;;;;19.82;14.35;;;;;;;17.67;100.00;94204.50;1680264;84;21490;-52
2022/09/10 04:55:41;;;;;;;35.38;21.57;;;;;;;17.64;100.00;94197.17;1665038;84;21089;-53
2022/09/10 04:58:09;;;;;;;17.70;13.18;;;;;;;17.65;100.00;94198.03;1688039;82;21010;-53
2022/09/10 05:00:38;;;;;;;18.92;12.03;;;;;;;17.67;100.00;94191.98;1690517;83;21777;-53
2022/09/10 05:03:06;;;;;;;14.55;10.45;;;;;;;17.64;100.00;94194.39;1681120;84;20987;-53
2022/09/10 05:05:34;;;;;;;12.15;9.48;;;;;;;17.62;100.00;94188.57;1692803;82;21066;-54
2022/09/10 05:08:04;;;;;;;15.95;9.40;;;;;;;17.60;100.00;94180.72;1693875;84;21050;-53
2022/09/10 05:10:31;;;;;;;12.78;9.60;;;;;;;17.59;100.00;94181.21;1692524;83;21006;-54
2022/09/10 05:12:58;;;;;;;17.75;10.90;;;;;;;17.61;100.00;94175.93;1690864;84;21257;-54
2022/09/10 05:15:26;;;;;;;17.55;12.13;;;;;;;17.61;100.00;94175.93;1669633;83;20981;-54
2022/09/10 05:17:53;;;;;;;14.70;10.55;;;;;;;17.64;100.00;94179.08;1686434;84;21021;-53
2022/09/10 05:20:20;;;;;;;14.00;9.70;;;;;;;17.69;99.88;94172.75;1690252;84;21557;-53
2022/09/10 05:22:49;;;;;;;12.25;9.30;;;;;;;17.79;99.94;94176.81;1684889;83;21038;-54
2022/09/10 05:25:16;;;;;;;17.85;11.22;;;;;;;17.90;99.94;94165.03;1681981;84;21236;-54
2022/09/10 05:27:43;;;;;;;20.82;11.93;;;;;;;18.00;99.88;94172.48;1693849;84;21014;-55
2022/09/10 05:30:13;;;;;;;16.60;11.90;;;;;;;18.07;99.76;94175.50;1691148;82;21021;-54
2022/09/10 05:32:41;;;;;;;20.55;12.55;;;;;;;18.17;99.59;94173.95;1693442;84;21021;-54
2022/09/10 05:35:08;;;;;;;20.52;11.33;;;;;;;18.26;99.34;94172.30;1702790;84;20961;-54
2022/09/10 05:37:37;;;;;;;22.07;11.63;;;;;;;18.39;99.42;94172.52;1681742;84;21402;-55
2022/09/10 05:40:06;;;;;;;26.33;12.70;;;;;;;18.50;98.73;94176.03;1683392;84;21009;-55
2022/09/10 05:42:34;;;;;;;15.23;11.68;;;;;;;18.58;97.75;94172.84;1659356;84;21051;-53
2022/09/10 05:45:03;;;;;;;22.25;12.78;;;;;;;18.61;96.76;94171.82;1660310;84;21001;-53
2022/09/10 05:47:30;;;;;;;16.80;11.83;;;;;;;18.61;95.78;94168.30;1673533;85;21097;-53
2022/09/10 05:49:59;;;;;;;20.57;10.55;;;;;;;18.60;95.81;94161.95;1670727;83;21517;-54
2022/09/10 05:52:26;;;;;;;13.35;10.18;;;;;;;18.65;96.06;94159.02;1683474;85;20971;-55
2022/09/10 05:54:55;;;;;;;17.12;10.78;;;;;;;18.65;95.86;94159.77;1650257;82;21089;-54
2022/09/10 05:57:22;;;;;;;15.30;11.48;;;;;;;18.65;95.74;94165.98;1681308;84;21142;-55
2022/09/10 05:59:51;;;;;;;19.12;12.53;;;;;;;18.58;95.86;94162.33;1671065;84;21065;-55
2022/09/10 06:02:18;;;;;;;20.10;11.22;;;;;;;18.55;96.29;94143.23;1685362;85;21163;-53
2022/09/10 06:04:46;;;;;;;14.25;10.18;;;;;;;18.55;96.37;94136.27;1660249;85;20955;-54
2022/09/10 06:07:14;;;;;;;13.90;9.33;;;;;;;18.59;96.58;94141.55;1681330;85;21014;-53
2022/09/10 06:09:43;;;;;;;13.88;10.45;;;;;;;18.60;96.15;94142.44;1670543;84;21013;-55
2022/09/10 06:12:12;;;;;;;37.88;12.68;;;;;;;18.61;96.17;94145.34;1655410;83;21089;-53
2022/09/10 06:14:39;;;;;;;21.55;12.00;;;;;;;18.63;96.06;94137.88;1680376;85;21821;-55
2022/09/10 06:17:05;;;;;;;15.08;11.38;;;;;;;18.63;95.98;94139.28;1682302;83;21478;-58
2022/09/10 06:19:32;;;;;;;20.08;11.20;;;;;;;18.63;95.90;94135.84;1662754;84;20969;-54
2022/09/10 06:21:59;;;;;;;12.28;9.50;;;;;;;18.65;95.59;94135.34;1681044;84;20983;-53
2022/09/10 06:24:27;;;;;;;16.42;10.80;;;;;;;18.64;95.57;94128.99;1663856;83;21238;-55
2022/09/10 06:26:56;;;;;;;16.27;11.43;;;;;;;18.64;95.55;94128.25;1681093;83;21177;-55
2022/09/10 06:29:24;;;;;;;19.60;11.38;;;;;;;18.63;95.44;94131.66;1689893;83;21022;-54
2022/09/10 06:31:51;;;;;;;14.50;9.73;;;;;;;18.66;95.31;94125.05;1692206;84;21602;-54
2022/09/10 06:34:18;;;;;;;14.35;10.40;;;;;;;18.68;94.76;94124.55;1692967;84;20986;-53
2022/09/10 06:36:49;;;;;;;15.48;10.15;;;;;;;18.70;94.09;94121.38;1693631;82;21100;-54
2022/09/10 06:39:17;;;;;;;15.25;10.60;;;;;;;18.79;94.23;94123.86;1672794;84;21277;-54
2022/09/10 06:41:46;;;;;;;12.90;10.80;;;;;;;18.84;94.30;94125.11;1671312;84;21499;-55
2022/09/10 06:44:15;;;;;;;19.80;11.93;;;;;;;18.86;94.48;94130.92;1689644;82;21482;-53
2022/09/10 06:46:49;;;;;;;14.75;10.53;;;;;;;18.86;94.66;94134.45;1691768;82;21105;-53
2022/09/10 06:49:17;;;;;;;14.60;9.78;;;;;;;18.91;94.35;94135.70;1679411;84;21472;-56
2022/09/10 06:51:48;;;;;;;17.52;10.48;;;;;;;18.93;94.10;94133.92;1689477;83;21116;-56
2022/09/10 06:54:17;;;;;;;14.68;9.95;;;;;;;18.94;93.38;94134.66;1688569;84;20978;-54
2022/09/10 06:56:45;;;;;;;11.97;9.75;;;;;;;18.94;93.07;94129.86;1696899;82;20965;-55
2022/09/10 06:59:13;;;;;;;13.35;9.43;;;;;;;18.94;92.45;94120.72;1682971;81;21096;-53
2022/09/10 07:01:42;;;;;;;10.75;8.98;;;;;;;18.91;92.33;94109.98;1642496;85;21001;-53
2022/09/10 07:04:09;;;;;;;14.50;9.63;;;;;;;18.88;92.31;94105.45;1665765;82;21206;-54
2022/09/10 07:06:39;;;;;;;14.35;10.20;;;;;;;18.87;92.22;94102.52;1685147;83;21086;-55
2022/09/10 07:09:08;;;;;;;17.05;9.98;;;;;;;18.88;92.72;94099.88;1684535;83;21108;-54
2022/09/10 07:11:37;;;;;;;14.68;10.55;;;;;;;18.88;92.65;94101.27;1685146;83;21033;-56
2022/09/10 07:14:05;;;;;;;12.60;9.18;;;;;;;18.85;92.72;94091.12;1689955;82;21006;-55
2022/09/10 07:16:34;;;;;;;10.95;9.53;;;;;;;18.84;92.85;94093.79;1693740;84;21284;-54
2022/09/10 07:19:01;;;;;;;14.78;11.50;;;;;;;18.83;92.84;94088.75;1696433;83;21015;-54
2022/09/10 07:21:35;;;;;;;12.67;10.77;;;;;;;18.81;92.61;94096.22;1680773;84;21113;-55
2022/09/10 07:24:02;;;;;;;19.00;11.18;;;;;;;18.76;92.04;94092.84;1678569;84;20993;-54
2022/09/10 07:26:29;;;;;;;16.30;10.72;;;;;;;18.72;92.09;94092.36;1659027;84;21058;-57
2022/09/10 07:28:58;;;;;;;12.60;9.55;;;;;;;18.70;92.16;94087.17;1637536;85;21333;-54
2022/09/10 07:31:32;;;;;;;15.20;10.48;;;;;;;18.69;92.40;94089.22;1668155;85;20983;-54
2022/09/10 07:34:02;;;;;;;19.35;10.72;;;;;;;18.72;92.58;94089.58;1648477;86;21130;-56
2022/09/10 07:36:43;;;;;;;14.03;11.28;;;;;;;18.75;92.80;94084.98;1654376;85;21082;-54
2022/09/10 07:39:19;;;;;;;14.47;10.70;;;;;;;18.74;92.89;94078.67;1627828;87;21044;-54
2022/09/10 07:41:46;;;;;;;21.73;11.45;;;;;;;18.73;93.10;94078.55;1582262;88;22204;-55
2022/09/10 07:44:14;;;;;;;14.10;9.35;;;;;;;18.78;93.61;94072.17;1650929;86;21006;-54
2022/09/10 07:46:45;;;;;;;11.08;9.10;;;;;;;18.87;93.24;94063.48;1663569;85;21090;-55
2022/09/10 07:49:14;;;;;;;12.15;10.45;;;;;;;18.96;92.95;94067.38;1638956;85;21052;-54
2022/09/10 07:51:42;;;;;;;13.10;11.20;;;;;;;19.06;92.18;94065.79;1663829;84;21505;-55
2022/09/10 07:54:10;;;;;;;14.90;11.40;;;;;;;19.11;91.67;94059.41;1661243;86;22050;-55
2022/09/10 07:56:39;;;;;;;17.92;9.70;;;;;;;19.17;91.65;94053.17;1659095;86;21119;-54
2022/09/10 07:59:08;;;;;;;12.20;9.43;;;;;;;19.21;91.40;94052.25;1658640;84;21633;-54
2022/09/10 08:01:51;;;;;;;14.60;9.25;;;;;;;19.22;91.25;94049.57;1654729;84;21042;-54
2022/09/10 08:04:19;;;;;;;10.88;9.30;;;;;;;19.26;91.34;94054.88;1659965;84;21001;-55
2022/09/10 08:06:46;;;;;;;11.97;9.60;;;;;;;19.27;90.91;94049.41;1632088;86;21220;-53
2022/09/10 08:09:13;;;;;;;12.65;9.65;;;;;;;19.28;90.03;94045.35;1630747;85;21110;-54
2022/09/10 08:11:43;;;;;;;12.37;8.98;;;;;;;19.32;89.01;94045.81;1658722;86;20997;-56
2022/09/10 08:14:12;;;;;;;13.10;8.83;;;;;;;19.31;88.27;94047.86;1665923;86;21093;-54
2022/09/10 08:16:40;;;;;;;25.62;9.80;;;;;;;19.28;87.78;94039.77;1655835;84;21026;-55
2022/09/10 08:19:09;;;;;;;13.13;9.03;;;;;;;19.27;87.98;94045.23;1653325;86;21148;-56
2022/09/10 08:21:36;;;;;;;13.45;9.58;;;;;;;19.26;87.77;94041.70;1653395;86;21502;-55
2022/09/10 08:24:06;;;;;;;10.18;9.03;;;;;;;19.28;87.49;94023.80;1662507;86;21056;-55
2022/09/10 08:26:33;;;;;;;13.35;8.95;;;;;;;19.30;87.63;94026.06;1655135;86;21133;-54
2022/09/10 08:29:01;;;;;;;11.68;8.00;;;;;;;19.25;88.11;94022.06;1645038;84;21052;-54
2022/09/10 08:31:29;;;;;;;150.30;34.98;;;;;;;19.22;88.44;94020.29;1657530;84;21210;-54
2022/09/10 08:33:57;;;;;;;48.85;23.30;;;;;;;19.22;88.76;94027.27;1644844;85;20949;-55
2022/09/10 08:36:25;;;;;;;23.42;16.00;;;;;;;19.19;88.60;94024.78;1667367;84;21512;-54
2022/09/10 08:38:53;;;;;;;22.75;14.65;;;;;;;19.10;89.14;94025.83;1659359;84;21080;-56
2022/09/10 08:41:38;;;;;;;18.02;12.25;;;;;;;19.05;89.79;94014.72;1665988;85;21045;-54
2022/09/10 08:44:12;;;;;;;15.63;9.38;;;;;;;19.10;90.39;93997.95;1666162;84;21312;-54
2022/09/10 08:46:49;;;;;;;19.48;11.48;;;;;;;19.22;91.14;93972.87;1643887;86;21446;-55
2022/09/10 08:49:41;;;;;;;14.40;11.12;;;;;;;19.26;91.05;93995.68;1661279;84;20996;-55
2022/09/10 08:52:38;;;;;;;12.50;9.30;;;;;;;19.24;90.79;94010.79;1666095;86;21030;-57
2022/09/10 08:55:21;;;;;;;12.07;9.15;;;;;;;19.15;90.89;94015.91;1665249;86;21006;-55
2022/09/10 08:58:17;;;;;;;16.23;10.68;;;;;;;18.98;91.18;94023.00;1654033;86;21285;-55
2022/09/10 09:00:46;;;;;;;18.25;11.80;;;;;;;18.88;91.51;94025.23;1625686;87;20993;-54
2022/09/10 09:03:23;;;;;;;18.40;13.00;;;;;;;18.78;92.15;94008.08;1626097;84;21033;-54
2022/09/10 09:05:54;;;;;;;14.55;10.25;;;;;;;18.74;93.00;94003.42;1664932;84;21021;-53
2022/09/10 09:08:28;;;;;;;;;;;;;;;18.73;93.76;93986.59;1656061;86;21002;-54
2022/09/10 09:11:30;;;;;;;17.95;9.90;;;;;;;18.74;94.25;93989.48;1633802;86;22230;-53
2022/09/10 09:14:32;;;;;;;17.75;10.75;;;;;;;18.73;94.76;93992.16;1650381;85;21084;-53
2022/09/10 09:17:24;;;;;;;17.32;12.15;;;;;;;18.73;95.25;93990.77;1621963;86;21073;-54
2022/09/10 09:20:19;;;;;;;19.37;12.78;;;;;;;18.76;95.28;94004.28;1664244;84;21237;-52
2022/09/10 09:22:57;;;;;;;24.43;14.15;;;;;;;18.67;94.93;94008.14;1668672;85;20982;-53
2022/09/10 09:25:52;;;;;;;23.75;13.68;;;;;;;18.57;95.47;94015.94;1666103;86;21238;-54
2022/09/10 09:28:35;;;;;;;46.73;21.65;;;;;;;18.45;96.50;93992.23;1649654;84;21089;-53
2022/09/10 09:31:09;;;;;;;38.60;21.85;;;;;;;18.37;97.44;93982.89;1670062;83;21029;-54
2022/09/10 09:33:36;;;;;;;50.20;24.85;;;;;;;18.30;98.52;93975.83;1665187;85;20982;-54
2022/09/10 09:36:04;;;;;;;26.20;17.20;;;;;;;18.29;99.64;93992.42;1665374;84;21151;-54
2022/09/10 09:38:44;;;;;;;147.28;94.20;;;;;;;18.29;99.65;93993.81;1660053;84;21087;-53
2022/09/10 09:41:38;;;;;;;71.05;54.15;;;;;;;18.25;99.53;94001.66;1657389;84;21109;-53
2022/09/10 09:44:21;;;;;;;29.60;20.65;;;;;;;18.24;100.00;93998.76;1659306;86;21019;-53
2022/09/10 09:46:48;;;;;;;18.90;15.18;;;;;;;18.30;100.00;93996.72;1667135;84;20990;-54
2022/09/10 09:49:15;;;;;;;18.65;14.28;;;;;;;18.39;100.00;93983.89;1654894;85;20974;-55
2022/09/10 09:51:47;;;;;;;22.07;12.13;;;;;;;18.45;100.00;93979.04;1644449;86;21255;-53
2022/09/10 09:54:20;;;;;;;16.57;11.25;;;;;;;18.59;100.00;93955.65;1642059;86;21073;-54
2022/09/10 09:56:50;;;;;;;20.72;12.30;;;;;;;18.83;100.00;93959.89;1643594;85;21466;-55
2022/09/10 09:59:38;;;;;;;16.17;11.63;;;;;;;19.12;99.66;93961.92;1643593;86;21083;-54
2022/09/10 10:02:15;;;;;;;15.32;11.55;;;;;;;19.35;99.34;93954.88;1637107;85;20998;-54
2022/09/10 10:05:03;;;;;;;14.10;11.05;;;;;;;19.54;98.29;93945.19;1665718;86;21165;-53
2022/09/10 10:07:33;;;;;;;11.75;10.55;;;;;;;19.85;96.85;93934.16;1665831;86;21105;-53
2022/09/10 10:10:00;;;;;;;10.55;8.38;;;;;;;20.45;97.73;93935.39;1669298;85;21009;-53
2022/09/10 10:12:32;;;;;;;12.85;8.45;;;;;;;21.02;95.67;93927.77;1665741;86;21126;-54
2022/09/10 10:14:59;;;;;;;12.73;9.38;;;;;;;21.37;90.97;93926.02;1664241;84;20978;-53
2022/09/10 10:17:37;;;;;;;9.95;8.85;;;;;;;21.90;88.76;93914.33;1653586;86;21130;-53
2022/09/10 10:20:15;;;;;;;9.45;7.10;;;;;;;22.35;87.53;93914.88;1658276;86;21017;-53
2022/09/10 10:22:44;;;;;;;7.08;6.05;;;;;;;22.82;82.49;93913.53;1664130;86;21689;-53
2022/09/10 10:25:40;;;;;;;15.40;12.07;;;;;;;23.11;80.18;93917.16;1665127;84;21048;-55
2022/09/10 10:28:22;;;;;;;10.63;7.60;;;;;;;23.25;77.59;93913.78;1656814;84;20954;-54
2022/09/10 10:30:59;;;;;;;7.97;6.97;;;;;;;23.41;76.84;93906.22;1654268;84;21407;-53
2022/09/10 10:33:28;;;;;;;9.88;8.23;;;;;;;23.34;75.49;93892.22;1665632;86;21022;-54
2022/09/10 10:36:15;;;;;;;12.00;9.68;;;;;;;23.16;75.81;93883.38;1661063;85;21021;-54
2022/09/10 10:38:49;;;;;;;10.08;8.03;;;;;;;23.09;77.07;93879.84;1681945;83;21115;-54
2022/09/10 10:41:28;;;;;;;10.13;7.55;;;;;;;23.14;78.14;93880.37;1663140;85;21618;-54
2022/09/10 10:44:31;;;;;;;11.95;7.78;;;;;;;23.13;76.35;93873.26;1653553;85;21432;-56
2022/09/10 10:47:27;;;;;;;10.75;9.63;;;;;;;23.02;76.37;93867.16;1650943;86;21016;-53
2022/09/10 10:50:21;;;;;;;12.05;7.65;;;;;;;22.76;77.30;93863.08;1654881;84;20986;-54
2022/09/10 10:53:12;;;;;;;9.13;7.03;;;;;;;22.65;78.07;93858.48;1633516;86;21509;-54
2022/09/10 10:55:44;;;;;;;7.35;6.60;;;;;;;22.90;78.43;93850.48;1653888;86;21038;-54
2022/09/10 10:58:19;;;;;;;6.67;5.97;;;;;;;23.50;76.11;93839.72;1643040;84;21830;-54
2022/09/10 11:00:57;;;;;;;10.82;7.80;;;;;;;24.05;74.50;93841.72;1638524;86;21140;-54
2022/09/10 11:03:35;;;;;;;7.05;6.12;;;;;;;24.88;72.37;93838.46;1655335;85;21074;-54
2022/09/10 11:06:20;;;;;;;11.97;7.17;;;;;;;25.78;68.58;93835.58;1619724;86;21041;-55
2022/09/10 11:09:03;;;;;;;7.37;6.67;;;;;;;26.56;64.60;93838.52;1647120;86;20966;-55
2022/09/10 11:11:46;;;;;;;9.05;6.92;;;;;;;27.09;61.57;93833.91;1654043;86;21094;-55
2022/09/10 11:14:27;;;;;;;11.77;7.47;;;;;;;27.36;60.24;93822.14;1627152;86;21039;-57
2022/09/10 11:17:15;;;;;;;7.97;6.75;;;;;;;27.36;60.24;93822.14;1643853;86;21622;-54
2022/09/10 11:20:08;;;;;;;7.67;6.97;;;;;;;27.84;58.65;93819.89;1632340;86;21207;-55
2022/09/10 11:22:41;;;;;;;8.68;7.47;;;;;;;28.13;57.11;93813.78;1657037;86;21034;-56
2022/09/10 11:25:35;;;;;;;11.90;7.78;;;;;;;27.97;55.63;93811.05;1620054;86;21432;-54
2022/09/10 11:28:15;;;;;;;10.35;8.28;;;;;;;27.42;55.70;93814.91;1633356;86;21042;-54
2022/09/10 11:30:51;;;;;;;9.53;8.63;;;;;;;26.75;57.16;93810.55;1646220;86;21031;-57
2022/09/10 11:33:45;;;;;;;9.35;8.40;;;;;;;26.23;58.79;93813.63;1654553;86;20987;-55
2022/09/10 11:36:23;;;;;;;13.25;8.85;;;;;;;25.93;60.10;93818.75;1646751;84;21040;-55
2022/09/10 11:39:20;;;;;;;10.03;9.05;;;;;;;25.78;60.78;93825.72;1644813;86;21875;-55
2022/09/10 11:41:48;;;;;;;10.55;9.45;;;;;;;25.80;59.77;93823.08;1655511;84;21050;-54
2022/09/10 11:44:30;;;;;;;12.65;9.98;;;;;;;26.08;61.17;93817.28;1650323;86;21025;-55